createdAt,value
2024-03-02T00:00:28.498Z,9.30
2024-03-02T00:03:16.980Z,8.70
2024-03-02T00:05:49.849Z,8.20
2024-03-02T00:08:26.028Z,7.30
2024-03-02T00:10:59.029Z,9.30
2024-03-02T00:13:28.544Z,9.40
2024-03-02T00:15:59.906Z,7.10
2024-03-02T00:18:36.760Z,7.10
2024-03-02T00:21:07.673Z,8.30
2024-03-02T00:23:36.365Z,10.70
2024-03-02T00:26:05.071Z,9.40
2024-03-02T00:28:36.388Z,10.80
2024-03-02T00:31:08.911Z,7.40
2024-03-02T00:33:41.680Z,6.80
2024-03-02T00:36:11.854Z,8.70
2024-03-02T00:38:51.583Z,9.50
2024-03-02T00:41:31.688Z,8.80
2024-03-02T00:44:09.511Z,12.60
2024-03-02T00:46:42.167Z,9.10
2024-03-02T00:49:22.096Z,8.70
2024-03-02T00:51:52.802Z,11.80
2024-03-02T00:54:27.058Z,7.80
2024-03-02T00:56:57.337Z,7.30
2024-03-02T00:59:26.960Z,9.50
2024-03-02T01:01:55.384Z,7.60
2024-03-02T01:04:23.886Z,6.80
2024-03-02T01:06:52.408Z,8.30
2024-03-02T01:09:20.681Z,7.00
2024-03-02T01:11:49.226Z,8.30
2024-03-02T01:14:17.403Z,7.60
2024-03-02T01:16:45.806Z,8.50
2024-03-02T01:19:14.185Z,7.30
2024-03-02T01:21:42.525Z,11.10
2024-03-02T01:24:10.954Z,10.80
2024-03-02T01:26:39.157Z,10.20
2024-03-02T01:29:07.783Z,10.70
2024-03-02T01:31:36.857Z,12.30
2024-03-02T01:34:05.084Z,10.40
2024-03-02T01:36:33.232Z,6.80
2024-03-02T01:39:02.123Z,8.80
2024-03-02T01:41:30.366Z,8.00
2024-03-02T01:43:58.560Z,9.80
2024-03-02T01:46:26.853Z,8.30
2024-03-02T01:48:55.044Z,10.80
2024-03-02T01:51:23.243Z,9.00
2024-03-02T01:53:51.682Z,10.00
2024-03-02T01:56:20.030Z,8.90
2024-03-02T01:58:48.245Z,8.50
2024-03-02T02:01:18.067Z,14.20
2024-03-02T02:03:46.849Z,11.70
2024-03-02T02:06:15.065Z,14.70
2024-03-02T02:08:43.262Z,10.30
2024-03-02T02:11:11.490Z,6.40
2024-03-02T02:13:39.640Z,10.00
2024-03-02T02:16:10.973Z,11.30
2024-03-02T02:18:39.276Z,10.90
2024-03-02T02:21:07.929Z,10.70
2024-03-02T02:23:36.743Z,8.80
2024-03-02T02:26:05.032Z,11.00
2024-03-02T02:28:34.605Z,9.00
2024-03-02T02:31:03.915Z,7.00
2024-03-02T02:33:32.229Z,6.60
2024-03-02T02:36:00.620Z,7.60
2024-03-02T02:38:28.875Z,7.70
2024-03-02T02:40:57.066Z,9.90
2024-03-02T02:43:25.198Z,6.50
2024-03-02T02:45:53.490Z,9.30
2024-03-02T02:48:21.867Z,9.30
2024-03-02T02:50:50.353Z,11.40
2024-03-02T02:53:18.626Z,11.30
2024-03-02T02:55:46.743Z,12.50
2024-03-02T02:58:15.973Z,10.20
2024-03-02T03:00:44.700Z,12.80
2024-03-02T03:03:12.977Z,10.90
2024-03-02T03:05:41.241Z,12.90
2024-03-02T03:08:09.373Z,10.10
2024-03-02T03:10:38.047Z,6.90
2024-03-02T03:13:09.419Z,8.80
2024-03-02T03:15:38.001Z,10.50
2024-03-02T03:18:06.284Z,8.00
2024-03-02T03:20:35.233Z,8.70
2024-03-02T03:23:05.349Z,11.20
2024-03-02T03:25:33.412Z,14.60
2024-03-02T03:28:02.955Z,11.10
2024-03-02T03:30:31.063Z,9.50
2024-03-02T03:32:59.175Z,11.10
2024-03-02T03:35:27.362Z,18.30
2024-03-02T03:37:55.591Z,12.20
2024-03-02T03:40:24.534Z,15.90
2024-03-02T03:42:53.148Z,22.90
2024-03-02T03:45:22.303Z,12.80
2024-03-02T03:47:50.778Z,8.90
2024-03-02T03:50:19.139Z,9.50
2024-03-02T03:52:47.298Z,11.70
2024-03-02T03:55:16.287Z,8.30
2024-03-02T03:57:44.372Z,8.80
2024-03-02T04:00:13.342Z,12.80
2024-03-02T04:02:41.934Z,13.30
2024-03-02T04:05:12.618Z,10.50
2024-03-02T04:07:42.023Z,12.70
2024-03-02T04:10:11.870Z,12.50
2024-03-02T04:12:40.344Z,12.50
2024-03-02T04:15:08.869Z,11.60
2024-03-02T04:17:37.813Z,11.10
2024-03-02T04:20:07.009Z,11.10
2024-03-02T04:22:36.629Z,13.60
2024-03-02T04:25:06.112Z,9.00
2024-03-02T04:27:34.946Z,14.90
2024-03-02T04:30:04.904Z,15.80
2024-03-02T04:32:33.103Z,11.70
2024-03-02T04:35:01.263Z,12.70
2024-03-02T04:37:29.429Z,9.00
2024-03-02T04:39:57.622Z,12.30
2024-03-02T04:42:25.956Z,17.10
2024-03-02T04:44:54.263Z,14.70
2024-03-02T04:47:22.434Z,19.20
2024-03-02T04:49:50.604Z,10.10
2024-03-02T04:52:18.897Z,12.20
2024-03-02T04:55:05.607Z,10.70
2024-03-02T04:57:33.680Z,14.00
2024-03-02T05:00:02.190Z,12.00
2024-03-02T05:02:30.343Z,12.40
2024-03-02T05:04:58.578Z,14.60
2024-03-02T05:07:26.767Z,12.40
2024-03-02T05:09:55.228Z,14.90
2024-03-02T05:12:42.278Z,13.30
2024-03-02T05:15:12.002Z,15.30
2024-03-02T05:17:41.892Z,15.10
2024-03-02T05:20:11.025Z,14.50
2024-03-02T05:22:40.858Z,16.10
2024-03-02T05:25:13.101Z,14.00
2024-03-02T05:27:41.384Z,15.50
2024-03-02T05:30:10.464Z,17.80
2024-03-02T05:32:38.880Z,20.00
2024-03-02T05:35:07.505Z,21.40
2024-03-02T05:37:35.806Z,16.90
2024-03-02T05:40:04.483Z,18.30
2024-03-02T05:42:32.736Z,12.80
2024-03-02T05:45:01.032Z,15.60
2024-03-02T05:47:29.549Z,14.80
2024-03-02T05:49:57.892Z,13.10
2024-03-02T05:52:26.846Z,15.10
2024-03-02T05:54:55.164Z,13.10
2024-03-02T05:57:49.068Z,9.70
2024-03-02T06:00:18.687Z,18.80
2024-03-02T06:02:47.413Z,12.50
2024-03-02T06:05:17.997Z,11.40
2024-03-02T06:07:46.790Z,14.70
2024-03-02T06:10:15.844Z,13.40
2024-03-02T06:12:44.689Z,12.90
2024-03-02T06:15:13.005Z,14.70
2024-03-02T06:17:41.295Z,16.50
2024-03-02T06:20:10.585Z,13.80
2024-03-02T06:22:39.710Z,11.40
2024-03-02T06:25:08.535Z,14.40
2024-03-02T06:27:37.061Z,18.80
2024-03-02T06:30:05.979Z,15.60
2024-03-02T06:32:34.464Z,18.50
2024-03-02T06:35:06.149Z,12.00
2024-03-02T06:37:34.329Z,12.60
2024-03-02T06:40:02.750Z,12.00
2024-03-02T06:42:34.928Z,17.00
2024-03-02T06:45:04.565Z,14.90
2024-03-02T06:47:33.052Z,16.40
2024-03-02T06:50:01.814Z,17.00
2024-03-02T06:52:30.060Z,19.30
2024-03-02T06:55:00.212Z,20.60
2024-03-02T06:57:28.578Z,20.50
2024-03-02T06:59:59.939Z,27.20
2024-03-02T07:02:28.530Z,23.10
2024-03-02T07:04:57.255Z,22.40
2024-03-02T07:07:25.460Z,16.70
2024-03-02T07:09:54.113Z,21.60
2024-03-02T07:12:22.463Z,18.10
2024-03-02T07:15:17.504Z,18.30
2024-03-02T07:17:45.742Z,16.20
2024-03-02T07:20:14.512Z,16.80
2024-03-02T07:22:44.926Z,14.40
2024-03-02T07:27:45.437Z,21.40
2024-03-02T07:30:20.098Z,25.40
2024-03-02T07:32:52.011Z,21.50
2024-03-02T07:35:20.395Z,26.60
2024-03-02T07:37:48.983Z,23.90
2024-03-02T07:40:17.293Z,20.70
2024-03-02T07:42:46.818Z,24.30
2024-03-02T07:45:15.310Z,28.50
2024-03-02T07:47:43.564Z,17.20
2024-03-02T07:50:11.912Z,19.50
2024-03-02T07:52:40.240Z,19.70
2024-03-02T07:55:08.619Z,17.20
2024-03-02T07:57:37.146Z,16.50
2024-03-02T08:00:07.292Z,16.10
2024-03-02T08:02:41.585Z,29.20
2024-03-02T08:05:10.009Z,17.30
2024-03-02T08:07:38.520Z,19.40
2024-03-02T08:10:08.294Z,16.50
2024-03-02T08:12:36.732Z,19.30
2024-03-02T08:15:05.434Z,19.40
2024-03-02T08:17:35.976Z,17.70
2024-03-02T08:20:08.108Z,15.20
2024-03-02T08:22:38.293Z,16.90
2024-03-02T08:25:09.729Z,18.50
2024-03-02T08:27:41.215Z,18.00
2024-03-02T08:30:12.044Z,15.80
2024-03-02T08:32:41.872Z,12.00
2024-03-02T08:35:10.416Z,14.40
2024-03-02T08:37:41.176Z,10.80
2024-03-02T08:40:10.100Z,10.10
2024-03-02T08:42:38.405Z,13.20
2024-03-02T08:45:08.131Z,15.40
2024-03-02T08:47:36.602Z,17.80
2024-03-02T08:50:06.440Z,15.30
2024-03-02T08:52:37.264Z,14.00
2024-03-02T08:55:06.268Z,13.20
2024-03-02T08:57:35.154Z,17.40
2024-03-02T09:00:04.096Z,20.60
2024-03-02T09:02:33.056Z,22.10
2024-03-02T09:05:02.157Z,16.70
2024-03-02T09:07:30.290Z,14.70
2024-03-02T09:09:58.708Z,18.40
2024-03-02T09:12:27.580Z,12.50
2024-03-02T09:14:55.761Z,12.60
2024-03-02T09:17:24.369Z,12.70
2024-03-02T09:19:54.133Z,12.00
2024-03-02T09:22:24.596Z,12.60
2024-03-02T09:24:52.997Z,13.30
2024-03-02T09:27:21.530Z,12.70
2024-03-02T09:29:52.943Z,10.80
2024-03-02T09:32:21.251Z,14.40
2024-03-02T09:34:50.641Z,7.70
2024-03-02T09:37:18.912Z,12.30
2024-03-02T09:39:47.480Z,10.40
2024-03-02T09:42:15.866Z,9.30
2024-03-02T09:44:44.657Z,10.60
2024-03-02T09:47:12.903Z,10.00
2024-03-02T09:49:42.103Z,15.60
2024-03-02T09:52:12.058Z,12.10
2024-03-02T09:54:41.946Z,8.70
2024-03-02T09:57:10.974Z,9.10
2024-03-02T09:59:39.348Z,10.30
2024-03-02T10:02:08.792Z,9.50
2024-03-02T10:04:37.240Z,15.90
2024-03-02T10:07:16.237Z,8.00
2024-03-02T10:09:50.353Z,11.40
2024-03-02T10:12:20.109Z,7.40
2024-03-02T10:14:50.221Z,9.00
2024-03-02T10:17:19.387Z,10.70
2024-03-02T10:19:47.689Z,10.60
2024-03-02T10:22:16.868Z,7.60
2024-03-02T10:24:47.422Z,9.50
2024-03-02T10:27:24.855Z,11.10
2024-03-02T10:29:53.476Z,6.90
2024-03-02T10:32:24.165Z,8.40
2024-03-02T10:34:53.317Z,11.70
2024-03-02T10:37:23.251Z,8.70
2024-03-02T10:39:54.040Z,7.90
2024-03-02T10:42:24.059Z,8.20
2024-03-02T10:44:54.866Z,8.90
2024-03-02T10:47:24.767Z,11.40
2024-03-02T10:49:56.599Z,12.20
2024-03-02T10:52:25.859Z,8.30
2024-03-02T10:54:54.361Z,10.30
2024-03-02T10:57:34.036Z,7.80
2024-03-02T11:00:04.845Z,10.00
2024-03-02T11:02:36.957Z,10.60
2024-03-02T11:05:28.366Z,11.80
2024-03-02T11:08:05.949Z,8.10
2024-03-02T11:10:53.747Z,7.90
2024-03-02T11:13:32.367Z,12.30
2024-03-02T11:16:11.594Z,8.50
2024-03-02T11:18:41.655Z,7.00
2024-03-02T11:21:11.070Z,8.30
2024-03-02T11:23:39.539Z,14.00
2024-03-02T11:26:20.210Z,9.60
2024-03-02T11:28:53.657Z,6.70
2024-03-02T11:31:22.155Z,12.20
2024-03-02T11:33:51.093Z,6.40
2024-03-02T11:36:22.228Z,5.50
2024-03-02T11:38:55.054Z,7.90
2024-03-02T11:41:23.432Z,7.80
2024-03-02T11:43:53.525Z,6.70
2024-03-02T11:46:23.544Z,8.50
2024-03-02T11:48:51.752Z,10.90
2024-03-02T11:51:20.114Z,6.40
2024-03-02T11:53:51.420Z,9.70
2024-03-02T11:56:20.964Z,9.80
2024-03-02T11:58:50.504Z,9.20
2024-03-02T12:01:24.803Z,11.90
2024-03-02T12:03:56.838Z,8.10
2024-03-02T12:06:27.781Z,8.80
2024-03-02T12:08:56.600Z,12.70
2024-03-02T12:11:27.759Z,9.10
2024-03-02T12:13:56.437Z,10.60
2024-03-02T12:16:26.405Z,11.00
2024-03-02T12:18:56.055Z,15.90
2024-03-02T12:21:24.877Z,9.70
2024-03-02T12:23:53.789Z,9.20
2024-03-02T12:26:23.558Z,10.00
2024-03-02T12:28:55.160Z,10.30
2024-03-02T12:31:23.766Z,10.90
2024-03-02T12:33:52.395Z,11.00
2024-03-02T12:36:21.569Z,12.60
2024-03-02T12:38:50.249Z,10.30
2024-03-02T12:41:18.643Z,7.30
2024-03-02T12:43:46.918Z,7.90
2024-03-02T12:46:15.810Z,6.30
2024-03-02T12:48:46.613Z,6.90
2024-03-02T12:51:16.558Z,9.00
2024-03-02T12:53:45.466Z,6.90
2024-03-02T12:56:17.628Z,5.80
2024-03-02T12:58:45.943Z,7.50
2024-03-02T13:01:16.729Z,7.10
2024-03-02T13:03:45.187Z,8.90
2024-03-02T13:06:13.777Z,6.30
2024-03-02T13:08:42.527Z,8.90
2024-03-02T13:11:11.594Z,11.10
2024-03-02T13:13:41.735Z,6.50
2024-03-02T13:16:13.665Z,10.40
2024-03-02T13:18:42.620Z,13.50
2024-03-02T13:21:11.704Z,9.60
2024-03-02T13:23:40.232Z,11.90
2024-03-02T13:26:08.899Z,7.60
2024-03-02T13:28:37.252Z,10.00
2024-03-02T13:31:05.939Z,8.80
2024-03-02T13:33:34.589Z,9.70
2024-03-02T13:36:04.591Z,8.50
2024-03-02T13:38:32.808Z,11.80
2024-03-02T13:41:02.402Z,9.90
2024-03-02T13:43:33.373Z,9.60
2024-03-02T13:46:03.689Z,9.50
2024-03-02T13:48:32.615Z,9.00
2024-03-02T13:51:00.808Z,9.50
2024-03-02T13:53:29.732Z,8.20
2024-03-02T13:55:59.319Z,10.60
2024-03-02T13:58:28.290Z,8.70
2024-03-02T14:00:57.950Z,10.10
2024-03-02T14:03:31.324Z,9.70
2024-03-02T14:06:00.158Z,9.30
2024-03-02T14:08:28.498Z,14.60
2024-03-02T14:10:59.486Z,11.80
2024-03-02T14:13:28.667Z,9.90
2024-03-02T14:15:56.988Z,18.70
2024-03-02T14:18:28.176Z,10.90
2024-03-02T14:20:59.784Z,9.30
2024-03-02T14:23:30.974Z,8.20
2024-03-02T14:26:00.427Z,13.50
2024-03-02T14:28:43.967Z,8.30
2024-03-02T14:31:19.221Z,11.90
2024-03-02T14:33:48.752Z,12.10
2024-03-02T14:36:18.278Z,9.70
2024-03-02T14:38:47.066Z,11.20
2024-03-02T14:41:15.559Z,11.60
2024-03-02T14:43:44.058Z,10.50
2024-03-02T14:46:15.588Z,13.20
2024-03-02T14:48:45.577Z,12.10
2024-03-02T14:51:15.742Z,16.20
2024-03-02T14:53:44.010Z,13.90
2024-03-02T14:56:15.061Z,13.50
2024-03-02T14:58:43.769Z,14.20
2024-03-02T15:01:13.573Z,14.00
2024-03-02T15:03:44.278Z,15.00
2024-03-02T15:06:12.630Z,11.70
2024-03-02T15:08:42.770Z,18.10
2024-03-02T15:11:12.057Z,15.90
2024-03-02T15:13:40.720Z,16.40
2024-03-02T15:16:09.771Z,13.40
2024-03-02T15:18:38.832Z,11.70
2024-03-02T15:21:07.283Z,15.10
2024-03-02T15:23:36.042Z,18.40
2024-03-02T15:26:04.857Z,16.50
2024-03-02T15:28:34.339Z,14.00
2024-03-02T15:31:02.486Z,12.90
2024-03-02T15:33:33.140Z,15.70
2024-03-02T15:36:02.976Z,15.40
2024-03-02T15:38:34.571Z,19.10
2024-03-02T15:41:06.082Z,18.70
2024-03-02T15:43:37.237Z,17.50
2024-03-02T15:46:05.613Z,15.50
2024-03-02T15:48:34.205Z,16.50
2024-03-02T15:51:06.766Z,15.50
2024-03-02T15:53:37.285Z,15.60
2024-03-02T15:56:09.485Z,26.30
2024-03-02T15:58:39.813Z,34.80
2024-03-02T16:01:10.696Z,27.00
2024-03-02T16:03:39.437Z,27.00
2024-03-02T16:06:07.898Z,23.90
2024-03-02T16:08:36.322Z,26.80
2024-03-02T16:11:06.118Z,23.00
2024-03-02T16:13:34.411Z,22.20
2024-03-02T16:16:03.214Z,24.90
2024-03-02T16:18:31.885Z,25.90
2024-03-02T16:21:00.831Z,23.80
2024-03-02T16:23:29.280Z,23.50
2024-03-02T16:25:58.161Z,20.70
2024-03-02T16:28:26.842Z,25.40
2024-03-02T16:30:55.700Z,21.50
2024-03-02T16:33:25.395Z,32.50
2024-03-02T16:35:53.835Z,33.90
2024-03-02T16:38:23.336Z,32.60
2024-03-02T16:40:52.213Z,41.40
2024-03-02T16:43:21.258Z,37.20
2024-03-02T16:45:49.697Z,40.10
2024-03-02T16:48:18.883Z,36.30
2024-03-02T16:50:47.493Z,35.60
2024-03-02T16:53:17.100Z,39.80
2024-03-02T16:55:45.324Z,33.20
2024-03-02T16:58:13.715Z,34.10
2024-03-02T17:00:42.299Z,34.10
2024-03-02T17:03:10.484Z,30.30
2024-03-02T17:05:40.149Z,32.60
2024-03-02T17:08:08.330Z,30.00
2024-03-02T17:10:38.636Z,39.50
2024-03-02T17:13:07.089Z,40.00
2024-03-02T17:15:35.782Z,42.20
2024-03-02T17:18:04.509Z,41.70
2024-03-02T17:20:32.746Z,38.90
2024-03-02T17:23:01.240Z,39.50
2024-03-02T17:25:29.648Z,35.70
2024-03-02T17:28:29.583Z,36.40
2024-03-02T17:30:58.975Z,31.40
2024-03-02T17:33:27.491Z,45.20
2024-03-02T17:35:58.767Z,37.00
2024-03-02T17:38:27.362Z,34.90
2024-03-02T17:40:55.750Z,39.90
2024-03-02T17:43:25.559Z,32.90
2024-03-02T17:45:57.583Z,33.90
2024-03-02T17:48:26.622Z,32.10
2024-03-02T17:50:55.322Z,31.00
2024-03-02T17:53:23.852Z,30.90
2024-03-02T17:55:53.997Z,33.10
2024-03-02T17:58:23.316Z,31.60
2024-03-02T18:00:53.470Z,29.20
2024-03-02T18:03:23.073Z,29.90
2024-03-02T18:05:51.434Z,34.10
2024-03-02T18:08:20.398Z,29.00
2024-03-02T18:10:49.087Z,33.50
2024-03-02T18:13:17.617Z,31.30
2024-03-02T18:15:51.224Z,35.60
2024-03-02T18:18:20.297Z,32.60
2024-03-02T18:20:50.129Z,35.80
2024-03-02T18:23:18.416Z,27.90
2024-03-02T18:25:49.913Z,32.30
2024-03-02T18:28:18.259Z,34.40
2024-03-02T18:30:46.654Z,35.00
2024-03-02T18:33:17.546Z,31.80
2024-03-02T18:35:45.722Z,32.40
2024-03-02T18:38:13.919Z,39.60
2024-03-02T18:40:55.951Z,27.10
2024-03-02T18:43:26.649Z,29.80
2024-03-02T18:45:56.784Z,35.10
2024-03-02T18:48:26.996Z,31.70
2024-03-02T18:50:55.574Z,33.90
2024-03-02T18:53:24.174Z,36.80
2024-03-02T18:55:52.704Z,34.70
2024-03-02T18:58:21.376Z,34.60
2024-03-02T19:00:51.750Z,34.30
2024-03-02T19:03:20.209Z,31.40
2024-03-02T19:05:49.093Z,31.40
2024-03-02T19:08:20.715Z,36.10
2024-03-02T19:10:50.254Z,36.00
2024-03-02T19:13:18.527Z,41.50
2024-03-02T19:15:49.677Z,38.40
2024-03-02T19:18:18.918Z,37.90
2024-03-02T19:20:47.596Z,43.70
2024-03-02T19:23:21.865Z,43.40
2024-03-02T19:26:00.109Z,48.80
2024-03-02T19:28:28.684Z,44.80
2024-03-02T19:30:57.089Z,41.80
2024-03-02T19:33:26.663Z,46.40
2024-03-02T19:36:01.013Z,42.70
2024-03-02T19:38:29.537Z,44.70
2024-03-02T19:40:58.604Z,47.60
2024-03-02T19:43:26.767Z,43.20
2024-03-02T19:45:55.341Z,37.30
2024-03-02T19:48:23.933Z,41.60
2024-03-02T19:50:54.485Z,40.30
2024-03-02T19:53:22.831Z,39.30
2024-03-02T19:55:51.019Z,42.90
2024-03-02T19:58:19.662Z,43.50
2024-03-02T20:00:48.247Z,40.50
2024-03-02T20:03:16.450Z,44.40
2024-03-02T20:05:45.515Z,43.70
2024-03-02T20:08:14.403Z,44.50
2024-03-02T20:10:44.579Z,47.70
2024-03-02T20:13:17.163Z,51.30
2024-03-02T20:15:45.622Z,47.10
2024-03-02T20:18:14.327Z,47.90
2024-03-02T20:20:42.536Z,56.10
2024-03-02T20:23:11.808Z,56.50
2024-03-02T20:25:40.339Z,53.10
2024-03-02T20:28:08.706Z,53.70
2024-03-02T20:30:37.240Z,53.90
2024-03-02T20:33:06.480Z,51.10
2024-03-02T20:35:37.280Z,67.00
2024-03-02T20:38:05.839Z,62.70
2024-03-02T20:40:34.666Z,60.80
2024-03-02T20:43:04.515Z,63.10
2024-03-02T20:45:32.919Z,57.00
2024-03-02T20:48:01.049Z,59.10
2024-03-02T20:50:29.774Z,60.70
2024-03-02T20:53:03.100Z,61.50
2024-03-02T20:55:31.409Z,60.00
2024-03-02T20:57:59.711Z,62.60
2024-03-02T21:00:27.901Z,60.00
2024-03-02T21:02:56.274Z,61.90
2024-03-02T21:05:25.156Z,55.40
2024-03-02T21:07:53.429Z,57.20
2024-03-02T21:10:22.649Z,51.70
2024-03-02T21:12:50.940Z,57.90
2024-03-02T21:15:19.624Z,60.80
2024-03-02T21:17:47.876Z,60.00
2024-03-02T21:20:16.138Z,60.90
2024-03-02T21:22:48.570Z,61.50
2024-03-02T21:25:21.290Z,55.10
2024-03-02T21:27:50.137Z,60.10
2024-03-02T21:30:19.652Z,54.90
2024-03-02T21:32:49.866Z,61.20
2024-03-02T21:35:20.311Z,57.70
2024-03-02T21:37:51.802Z,54.40
2024-03-02T21:40:20.582Z,53.90
2024-03-02T21:42:49.816Z,56.30
2024-03-02T21:45:18.721Z,53.70
2024-03-02T21:47:48.023Z,54.10
2024-03-02T21:50:17.761Z,51.50
2024-03-02T21:52:47.359Z,48.00
2024-03-02T21:55:16.971Z,47.20
2024-03-02T21:57:45.811Z,48.50
2024-03-02T22:00:15.309Z,46.30
2024-03-02T22:02:43.621Z,48.90
2024-03-02T22:05:12.073Z,45.70
2024-03-02T22:07:40.584Z,48.20
2024-03-02T22:10:09.316Z,51.60
2024-03-02T22:12:37.748Z,47.70
2024-03-02T22:15:06.171Z,54.70
2024-03-02T22:17:35.879Z,56.40
2024-03-02T22:20:05.133Z,50.00
2024-03-02T22:22:33.400Z,52.40
2024-03-02T22:25:03.124Z,51.20
2024-03-02T22:27:32.038Z,56.50
2024-03-02T22:30:00.320Z,47.00
2024-03-02T22:32:29.206Z,50.20
2024-03-02T22:34:57.548Z,47.20
2024-03-02T22:37:25.756Z,47.20
2024-03-02T22:39:54.581Z,52.70
2024-03-02T22:42:23.826Z,58.50
2024-03-02T22:44:53.400Z,55.50
2024-03-02T22:47:21.584Z,52.60
2024-03-02T22:49:50.581Z,52.90
2024-03-02T22:52:18.860Z,54.50
2024-03-02T22:54:47.609Z,52.00
2024-03-02T22:57:19.022Z,51.30
2024-03-02T22:59:53.401Z,53.30
2024-03-02T23:02:21.720Z,51.50
2024-03-02T23:04:49.966Z,50.30
2024-03-02T23:07:20.932Z,47.00
2024-03-02T23:09:50.589Z,52.20
2024-03-02T23:12:19.449Z,48.50
2024-03-02T23:14:47.734Z,43.70
2024-03-02T23:17:16.283Z,48.20
2024-03-02T23:19:44.455Z,49.70
2024-03-02T23:22:14.386Z,50.60
2024-03-02T23:24:42.929Z,46.40
2024-03-02T23:27:10.983Z,47.70
2024-03-02T23:29:41.390Z,51.70
2024-03-02T23:32:09.520Z,46.30
2024-03-02T23:34:37.701Z,47.40
2024-03-02T23:37:06.356Z,49.30
2024-03-02T23:39:55.072Z,46.00
2024-03-02T23:42:23.283Z,43.40
2024-03-02T23:44:51.418Z,41.80
2024-03-02T23:47:19.589Z,45.70
2024-03-02T23:49:48.363Z,37.10
2024-03-02T23:52:16.738Z,40.30
2024-03-02T23:54:45.083Z,37.70
2024-03-02T23:57:13.845Z,36.90
2024-03-02T23:59:42.528Z,36.50
